Time;durP1;ratioP1;P1;durP2;ratioP2;P2;SDS_P1;SDS_P2;PMS_P1;PMS_P2;Temp;Humidity;BMP_temperature;BMP_pressure;BME280_temperature;BME280_humidity;BME280_pressure;Samples;Min_cycle;Max_cycle;Signal;HPM_P1;HPM_P2
2022/11/12 00:02:08;;;;;;;;;37.00;28.25;;;;;11.51;100.00;102672.38;5078391;28;45725;-75
2022/11/12 00:04:33;;;;;;;;;36.75;33.25;;;;;11.50;100.00;102667.00;5079424;28;45532;-76
2022/11/12 00:06:59;;;;;;;;;43.00;34.25;;;;;11.49;100.00;102659.94;5076848;28;45441;-74
2022/11/12 00:09:24;;;;;;;;;44.00;34.25;;;;;11.48;100.00;102659.03;5079955;28;45667;-74
2022/11/12 00:11:49;;;;;;;;;44.00;33.50;;;;;11.46;100.00;102655.44;5079935;28;45386;-76
2022/11/12 00:14:15;;;;;;;;;39.75;31.25;;;;;11.46;100.00;102667.78;5079460;28;51330;-75
2022/11/12 00:16:40;;;;;;;;;35.75;28.75;;;;;11.44;100.00;102667.69;5079598;28;45347;-74
2022/11/12 00:19:06;;;;;;;;;35.50;32.75;;;;;11.43;100.00;102670.28;5211181;22;45535;-74
2022/11/12 00:21:31;;;;;;;;;36.50;32.50;;;;;11.41;100.00;102670.25;5113063;27;45208;-74
2022/11/12 00:23:56;;;;;;;;;39.25;30.25;;;;;11.39;100.00;102661.34;5102123;27;48354;-76
2022/11/12 00:26:22;;;;;;;;;42.50;35.00;;;;;11.34;100.00;102660.25;5101557;27;50766;-74
2022/11/12 00:28:47;;;;;;;;;42.75;32.75;;;;;11.39;100.00;102668.38;5101633;27;63156;-75
2022/11/12 00:31:12;;;;;;;;;37.50;32.00;;;;;11.33;100.00;102660.22;5111708;27;54823;-74
2022/11/12 00:33:39;;;;;;;;;46.75;36.50;;;;;11.33;100.00;102660.22;5115550;27;45433;-74
2022/11/12 00:36:05;;;;;;;;;37.75;31.25;;;;;11.36;100.00;102670.91;5098497;27;45619;-75
2022/11/12 00:38:30;;;;;;;;;47.00;37.25;;;;;11.32;100.00;102667.25;5100581;27;45480;-74
2022/11/12 00:40:58;;;;;;;;;42.00;35.75;;;;;11.28;100.00;102663.59;5114803;27;46026;-74
2022/11/12 00:43:24;;;;;;;;;51.25;38.00;;;;;11.29;100.00;102664.47;5112405;27;45432;-74
2022/11/12 00:45:49;;;;;;;;;46.50;36.50;;;;;11.32;100.00;102666.34;5111427;27;46189;-74
2022/11/12 00:48:15;;;;;;;;;43.50;36.25;;;;;11.26;100.00;102661.75;5114705;27;45499;-75
2022/11/12 00:50:40;;;;;;;;;39.50;34.00;;;;;11.29;100.00;102656.53;5117951;27;53681;-74
2022/11/12 00:53:05;;;;;;;;;38.25;33.75;;;;;11.24;100.00;102647.56;5116133;27;45432;-74
2022/11/12 00:55:31;;;;;;;;;43.75;32.75;;;;;11.30;100.00;102671.59;5117505;27;52415;-75
2022/11/12 00:57:59;;;;;;;;;41.75;32.75;;;;;11.28;100.00;102660.03;5100914;27;48733;-74
2022/11/12 01:00:25;;;;;;;;;35.25;30.50;;;;;11.24;100.00;102644.94;5116577;27;45212;-74
2022/11/12 01:02:50;;;;;;;;;35.50;32.00;;;;;11.25;100.00;102644.06;5117193;27;45456;-75
2022/11/12 01:05:16;;;;;;;;;33.75;29.50;;;;;11.20;100.00;102643.00;5100079;27;67716;-76
2022/11/12 01:07:42;;;;;;;;;36.00;33.75;;;;;11.28;100.00;102658.28;5111953;27;45257;-74
2022/11/12 01:10:08;;;;;;;;;30.75;28.00;;;;;11.23;100.00;102645.75;5110995;27;45586;-75
2022/11/12 01:12:34;;;;;;;;;34.50;30.25;;;;;11.26;100.00;102649.41;5110538;27;45437;-73
2022/11/12 01:15:00;;;;;;;;;36.00;31.50;;;;;11.25;100.00;102654.66;5080512;27;46420;-74
2022/11/12 01:17:25;;;;;;;;;33.50;29.25;;;;;11.23;100.00;102653.69;5104951;27;45307;-75
2022/11/12 01:19:51;;;;;;;;;31.00;26.25;;;;;11.20;100.00;102640.34;5118145;27;45428;-75
2022/11/12 01:22:17;;;;;;;;;35.25;28.50;;;;;11.23;100.00;102644.00;5116673;27;45595;-76
2022/11/12 01:24:42;;;;;;;;;37.00;29.00;;;;;11.22;100.00;102642.19;5099796;27;46871;-75
2022/11/12 01:27:08;;;;;;;;;31.50;29.00;;;;;11.21;100.00;102645.69;5112269;27;58347;-77
2022/11/12 01:29:33;;;;;;;;;43.25;36.00;;;;;11.19;100.00;102644.75;5098100;27;48445;-75
2022/11/12 01:31:58;;;;;;;;;31.25;30.00;;;;;11.16;100.00;102636.69;5114009;27;59656;-75
2022/11/12 01:34:24;;;;;;;;;35.50;32.00;;;;;11.17;100.00;102633.19;5114973;27;46300;-75
2022/11/12 01:36:50;;;;;;;;;34.75;31.25;;;;;11.20;100.00;102641.25;5111036;27;45424;-75
2022/11/12 01:39:15;;;;;;;;;35.50;30.50;;;;;11.19;100.00;102643.84;5111128;27;59823;-75
2022/11/12 01:41:41;;;;;;;;;35.75;31.50;;;;;11.18;100.00;102645.56;5112270;27;45454;-75
2022/11/12 01:44:09;;;;;;;;;38.25;30.25;;;;;11.17;100.00;102641.13;5114022;27;46407;-74
2022/11/12 01:46:59;;;;;;;;;33.25;30.25;;;;;11.13;100.00;102627.72;5114391;27;45563;-74
2022/11/12 01:49:49;;;;;;;;;33.75;29.50;;;;;11.16;100.00;102631.41;5104509;27;45292;-74
2022/11/12 01:52:30;;;;;;;;;32.75;30.00;;;;;11.16;100.00;102623.47;5115709;27;45671;-75
2022/11/12 01:55:02;;;;;;;;;37.00;30.50;;;;;11.11;100.00;102614.47;5110642;27;46424;-77
2022/11/12 01:57:31;;;;;;;;;35.50;28.25;;;;;11.15;100.00;102624.31;5096572;27;45450;-76
2022/11/12 02:00:00;;;;;;;;;35.00;27.50;;;;;11.12;100.00;102616.25;5113081;27;45409;-76
2022/11/12 02:02:26;;;;;;;;;28.00;28.00;;;;;11.08;100.00;102610.78;5114621;27;45457;-74
2022/11/12 02:04:53;;;;;;;;;36.25;27.75;;;;;11.10;100.00;102614.41;5112775;27;46561;-75
2022/11/12 02:07:21;;;;;;;;;30.25;27.25;;;;;11.02;100.00;102598.25;5114090;27;45433;-75
2022/11/12 02:09:46;;;;;;;;;40.00;35.50;;;;;11.05;100.00;102605.41;5108449;27;45538;-74
2022/11/12 02:13:56;;;;;;;;;33.75;29.00;;;;;11.09;100.00;102609.97;5112284;27;45362;-75
2022/11/12 02:14:57;;;;;;;;;34.75;33.25;;;;;11.04;100.00;102611.56;5095440;27;46066;-76
2022/11/12 02:17:22;;;;;;;;;33.50;31.00;;;;;10.97;100.00;102606.03;5114224;27;56703;-72
2022/11/12 02:19:51;;;;;;;;;29.50;26.50;;;;;11.07;100.00;102627.50;5112890;27;53845;-73
2022/11/12 02:22:16;;;;;;;;;33.75;25.75;;;;;11.01;100.00;102618.50;5113716;27;46123;-75
2022/11/12 02:24:41;;;;;;;;;30.75;27.50;;;;;11.05;100.00;102627.47;5113208;27;47062;-75
2022/11/12 02:27:07;;;;;;;;;36.00;31.00;;;;;11.04;100.00;102627.41;5113632;27;57635;-73
2022/11/12 02:29:32;;;;;;;;;31.25;27.25;;;;;11.04;100.00;102636.25;5117945;27;45271;-75
2022/11/12 02:31:58;;;;;;;;;38.00;27.50;;;;;10.95;100.00;102618.28;5115746;27;45450;-74
2022/11/12 02:34:23;;;;;;;;;30.50;29.50;;;;;11.02;100.00;102624.69;5116502;27;46239;-73
2022/11/12 02:36:48;;;;;;;;;33.25;28.00;;;;;11.01;100.00;102618.50;5113073;27;59793;-74
2022/11/12 02:39:14;;;;;;;;;32.25;28.25;;;;;11.00;100.00;102623.75;5087295;27;45501;-77
2022/11/12 02:41:39;;;;;;;;;30.25;28.00;;;;;10.95;100.00;102609.44;5116133;27;45330;-74
2022/11/12 02:44:04;;;;;;;;;27.50;22.75;;;;;11.00;100.00;102616.72;5114440;27;46152;-72
2022/11/12 02:46:30;;;;;;;;;29.75;24.25;;;;;10.99;100.00;102614.91;5106470;27;50244;-74
2022/11/12 02:48:55;;;;;;;;;29.25;24.75;;;;;10.99;100.00;102608.72;5116107;27;53340;-72
2022/11/12 02:51:21;;;;;;;;;31.00;25.00;;;;;10.99;100.00;102611.38;5118006;27;45589;-73
2022/11/12 02:53:46;;;;;;;;;32.00;24.75;;;;;10.97;100.00;102608.69;5114984;27;46401;-75
2022/11/12 02:56:11;;;;;;;;;33.50;27.75;;;;;10.97;100.00;102608.69;5115262;27;46851;-72
2022/11/12 02:58:37;;;;;;;;;28.25;24.50;;;;;10.95;100.00;102605.06;5114407;27;54448;-75
2022/11/12 03:01:02;;;;;;;;;31.50;26.25;;;;;10.91;100.00;102595.19;5111612;27;45520;-74
2022/11/12 03:03:27;;;;;;;;;32.00;27.25;;;;;10.95;100.00;102604.16;5114815;27;45612;-74
2022/11/12 03:05:58;;;;;;;;;32.75;30.50;;;;;10.94;100.00;102608.56;5111442;27;51844;-75
2022/11/12 03:08:24;;;;;;;;;32.25;26.75;;;;;10.85;100.00;102589.69;5113670;27;45374;-74
2022/11/12 03:10:50;;;;;;;;;32.50;25.75;;;;;10.93;100.00;102606.75;5098641;27;45318;-74
2022/11/12 03:13:15;;;;;;;;;28.00;26.00;;;;;10.91;100.00;102605.78;5114885;27;46589;-76
2022/11/12 03:15:40;;;;;;;;;31.50;24.25;;;;;10.92;100.00;102604.97;5096275;27;52491;-74
2022/11/12 03:18:06;;;;;;;;;31.25;28.00;;;;;10.89;100.00;102588.97;5108976;27;45289;-75
2022/11/12 03:20:33;;;;;;;;;26.50;23.25;;;;;10.84;100.00;102574.69;5112646;27;53596;-74
2022/11/12 03:23:07;;;;;;;;;34.50;26.25;;;;;10.87;100.00;102582.75;5104000;27;48490;-74
2022/11/12 03:25:32;;;;;;;;;33.25;28.25;;;;;10.85;100.00;102591.44;5097319;27;45441;-75
2022/11/12 03:27:58;;;;;;;;;29.00;25.00;;;;;10.86;100.00;102594.13;5116521;27;45425;-74
2022/11/12 03:30:26;;;;;;;;;29.50;28.75;;;;;10.87;100.00;102595.06;5113908;27;45520;-75
2022/11/12 03:32:51;;;;;;;;;31.50;27.50;;;;;10.86;100.00;102588.84;5097886;27;46296;-74
2022/11/12 03:35:16;;;;;;;;;20.25;19.50;;;;;10.89;100.00;102593.38;5114592;27;59123;-77
2022/11/12 03:37:42;;;;;;;;;42.00;29.00;;;;;10.81;100.00;102577.19;5104186;27;45685;-75
2022/11/12 03:40:08;;;;;;;;;26.00;21.50;;;;;10.88;100.00;102579.25;5096868;27;48632;-74
2022/11/12 03:42:33;;;;;;;;;36.00;30.75;;;;;10.86;100.00;102588.84;5114521;27;45925;-76
2022/11/12 03:44:58;;;;;;;;;32.75;30.25;;;;;10.88;100.00;102584.53;5114346;27;62143;-74
2022/11/12 03:47:24;;;;;;;;;32.50;30.50;;;;;10.85;100.00;102578.22;5095155;27;45170;-74
2022/11/12 03:49:49;;;;;;;;;34.25;30.50;;;;;10.89;100.00;102594.25;5108949;27;45254;-75
2022/11/12 03:52:14;;;;;;;;;32.50;27.50;;;;;10.88;100.00;102594.22;5115420;27;45616;-74
2022/11/12 03:54:40;;;;;;;;;32.75;28.75;;;;;10.88;100.00;102591.56;5110534;27;58840;-75
2022/11/12 03:57:05;;;;;;;;;20.50;20.25;;;;;10.87;100.00;102595.97;5105467;27;45513;-74
2022/11/12 03:59:31;;;;;;;;;33.00;26.00;;;;;10.85;100.00;102597.63;5116932;27;45337;-74
2022/11/12 04:01:56;;;;;;;;;29.50;25.75;;;;;10.81;100.00;102589.50;5114297;27;61122;-75
2022/11/12 04:04:21;;;;;;;;;30.50;23.25;;;;;10.85;100.00;102596.72;5109987;27;56041;-74
2022/11/12 04:09:31;;;;;;;;;27.50;21.25;;;;;10.83;100.00;102599.31;5107820;27;45312;-75
2022/11/12 04:13:26;;;;;;;;;26.50;21.50;;;;;10.81;100.00;102598.34;5109878;27;45578;-74
2022/11/12 04:14:41;;;;;;;;;28.50;25.25;;;;;10.81;100.00;102600.09;5115832;27;45425;-74
2022/11/12 04:22:34;;;;;;;;;22.25;20.50;;;;;10.73;100.00;102595.41;5103827;27;45290;-74
2022/11/12 04:27:43;;;;;;;;;25.75;21.75;;;;;10.71;100.00;102597.13;5116086;27;45206;-76
2022/11/12 04:30:16;;;;;;;;;28.00;20.75;;;;;10.70;100.00;102592.63;5111197;27;50796;-75
2022/11/12 04:32:49;;;;;;;;;23.75;20.75;;;;;10.67;100.00;102592.53;5115908;27;46549;-75
2022/11/12 04:35:15;;;;;;;;;24.75;20.75;;;;;10.73;100.00;102610.38;5109659;27;45344;-74
2022/11/12 04:37:43;;;;;;;;;21.75;19.75;;;;;10.73;100.00;102611.25;5096929;27;45423;-75
2022/11/12 04:45:52;;;;;;;;;17.75;11.75;;;;;10.66;100.00;102601.31;5097755;27;45546;-74
2022/11/12 04:48:18;;;;;;;;;20.75;18.75;;;;;10.69;100.00;102590.84;5119329;27;45487;-74
2022/11/12 04:50:46;;;;;;;;;24.75;17.25;;;;;10.67;100.00;102583.72;5117895;27;45223;-74
2022/11/12 04:53:12;;;;;;;;;22.00;15.00;;;;;10.66;100.00;102580.19;5118931;27;46547;-74
2022/11/12 04:55:37;;;;;;;;;21.50;20.00;;;;;10.66;100.00;102584.56;5114609;27;45263;-75
2022/11/12 04:58:02;;;;;;;;;17.25;14.50;;;;;10.69;100.00;102587.31;5119819;27;48150;-75
2022/11/12 05:00:28;;;;;;;;;21.50;17.75;;;;;10.67;100.00;102589.91;5118457;27;45451;-74
2022/11/12 05:02:53;;;;;;;;;19.50;16.25;;;;;10.66;100.00;102581.94;5116934;27;45640;-74
2022/11/12 05:05:19;;;;;;;;;16.25;14.25;;;;;10.69;100.00;102604.06;5116587;27;45313;-74
2022/11/12 05:07:44;;;;;;;;;25.25;17.25;;;;;10.70;100.00;102604.94;5119587;27;45494;-76
2022/11/12 05:10:09;;;;;;;;;20.50;16.00;;;;;10.67;100.00;102595.19;5098528;27;46295;-74
2022/11/12 05:12:35;;;;;;;;;24.75;19.00;;;;;10.64;100.00;102584.47;5110454;27;46116;-76
2022/11/12 05:15:01;;;;;;;;;18.75;17.00;;;;;10.67;100.00;102592.53;5117547;27;45537;-75
2022/11/12 05:17:27;;;;;;;;;24.25;19.50;;;;;10.68;100.00;102604.00;5100619;27;45501;-75
2022/11/12 05:19:52;;;;;;;;;19.00;17.25;;;;;10.64;100.00;102587.13;5104796;27;45389;-74
2022/11/12 05:22:17;;;;;;;;;15.25;15.25;;;;;10.67;100.00;102584.63;5101785;27;45465;-76
2022/11/12 05:24:43;;;;;;;;;24.00;17.75;;;;;10.66;100.00;102601.31;5076507;27;48677;-75
2022/11/12 05:27:15;;;;;;;;;20.50;14.00;;;;;10.65;100.00;102603.88;5102330;27;45442;-75
2022/11/12 05:29:40;;;;;;;;;19.75;17.00;;;;;10.64;100.00;102599.44;5099796;27;45153;-75
2022/11/12 05:32:07;;;;;;;;;19.25;15.00;;;;;10.61;100.00;102596.69;5099672;27;47027;-74
2022/11/12 05:34:32;;;;;;;;;20.75;20.00;;;;;10.61;100.00;102592.31;5100662;27;46588;-74
2022/11/12 05:36:58;;;;;;;;;21.25;16.50;;;;;10.60;100.00;102589.59;5093572;27;45446;-75
2022/11/12 05:39:24;;;;;;;;;16.50;14.50;;;;;10.64;100.00;102596.78;5103083;27;45584;-76
2022/11/12 05:41:50;;;;;;;;;19.75;17.00;;;;;10.66;100.00;102600.41;5098427;27;45371;-74
2022/11/12 05:44:16;;;;;;;;;18.00;16.25;;;;;10.60;100.00;102589.59;5084223;27;45560;-74
2022/11/12 05:46:41;;;;;;;;;19.00;18.00;;;;;10.69;100.00;102597.88;5100184;27;45255;-74
2022/11/12 05:49:06;;;;;;;;;21.75;17.75;;;;;10.56;100.00;102562.16;5104701;27;45447;-74
2022/11/12 05:51:32;;;;;;;;;16.00;16.00;;;;;10.60;100.00;102573.72;5101775;27;46385;-74
2022/11/12 05:53:57;;;;;;;;;20.25;15.00;;;;;10.74;100.00;102591.94;5099960;27;45436;-75
2022/11/12 05:56:23;;;;;;;;;15.00;10.25;;;;;10.74;100.00;102588.38;5099517;27;45289;-74
2022/11/12 05:58:48;;;;;;;;;18.00;14.50;;;;;10.78;100.00;102592.94;5099815;27;45140;-74
2022/11/12 06:01:13;;;;;;;;;16.75;16.50;;;;;10.83;100.00;102598.41;5103782;27;62838;-74
2022/11/12 06:03:39;;;;;;;;;22.25;12.25;;;;;10.76;100.00;102586.72;5088275;27;45891;-74
2022/11/12 06:06:04;;;;;;;;;17.25;15.25;;;;;10.80;100.00;102596.53;5105473;27;45678;-74
2022/11/12 06:08:30;;;;;;;;;17.25;12.25;;;;;10.85;100.00;102610.84;5105961;27;45456;-74
2022/11/12 06:10:55;;;;;;;;;19.75;14.00;;;;;10.84;100.00;102606.41;5097491;27;56021;-74
2022/11/12 06:13:22;;;;;;;;;15.25;13.00;;;;;10.85;100.00;102602.00;5104034;27;45560;-76
2022/11/12 06:15:47;;;;;;;;;13.50;10.25;;;;;10.84;100.00;102597.56;5100881;27;45452;-75
2022/11/12 06:18:13;;;;;;;;;18.25;13.50;;;;;10.84;100.00;102603.75;5104909;27;45462;-74
2022/11/12 06:20:39;;;;;;;;;13.25;8.25;;;;;10.83;100.00;102599.31;5099153;27;51033;-74
2022/11/12 06:23:04;;;;;;;;;16.75;15.75;;;;;10.80;100.00;102599.19;5102796;27;45572;-75
2022/11/12 06:25:29;;;;;;;;;15.50;14.25;;;;;10.72;100.00;102590.09;5099674;27;45293;-74
2022/11/12 06:27:55;;;;;;;;;17.25;14.00;;;;;10.77;100.00;102600.84;5100966;27;58838;-74
2022/11/12 06:30:21;;;;;;;;;16.50;15.00;;;;;10.75;100.00;102600.75;5099647;27;46539;-75
2022/11/12 06:32:47;;;;;;;;;15.25;12.50;;;;;10.74;100.00;102591.03;5098584;27;58186;-74
2022/11/12 06:35:12;;;;;;;;;14.50;11.75;;;;;10.65;100.00;102586.31;5106629;27;45470;-75
2022/11/12 06:37:38;;;;;;;;;18.00;12.50;;;;;10.67;100.00;102603.09;5102858;27;45184;-74
2022/11/12 06:40:04;;;;;;;;;14.50;13.25;;;;;10.63;100.00;102597.63;5103968;27;45594;-74
2022/11/12 06:42:29;;;;;;;;;14.00;14.00;;;;;10.65;100.00;102614.44;5097151;27;47075;-74
2022/11/12 06:44:54;;;;;;;;;21.75;16.00;;;;;10.63;100.00;102605.56;5098205;27;51156;-74
2022/11/12 06:47:20;;;;;;;;;17.50;14.00;;;;;10.59;100.00;102608.91;5099620;27;54177;-76
2022/11/12 06:49:45;;;;;;;;;20.50;19.50;;;;;10.62;100.00;102624.91;5098086;27;58672;-74
2022/11/12 06:52:10;;;;;;;;;16.25;15.25;;;;;10.57;100.00;102622.06;5098622;27;46213;-74
2022/11/12 06:54:36;;;;;;;;;17.25;15.00;;;;;10.56;100.00;102616.75;5082938;27;53627;-76
2022/11/12 06:57:01;;;;;;;;;16.25;15.25;;;;;10.55;100.00;102618.47;5104283;27;45411;-74
2022/11/12 06:59:26;;;;;;;;;15.00;12.25;;;;;10.56;100.00;102627.31;5112869;27;45372;-74
2022/11/12 07:01:52;;;;;;;;;14.25;13.00;;;;;10.58;100.00;102630.91;5075490;27;48135;-74
2022/11/12 07:04:18;;;;;;;;;14.25;12.75;;;;;10.58;100.00;102629.16;5102792;27;45463;-74
2022/11/12 07:06:43;;;;;;;;;14.75;13.50;;;;;10.58;100.00;102630.91;5108475;27;45482;-74
2022/11/12 07:09:08;;;;;;;;;17.50;12.75;;;;;10.56;100.00;102624.66;5106604;27;46894;-75
2022/11/12 07:11:34;;;;;;;;;17.00;15.00;;;;;10.52;100.00;102613.06;5097332;27;62310;-74
2022/11/12 07:13:59;;;;;;;;;18.00;13.00;;;;;10.56;100.00;102622.91;5083128;27;45325;-74
2022/11/12 07:16:24;;;;;;;;;21.25;16.25;;;;;10.57;100.00;102616.78;5100836;27;53364;-74
2022/11/12 07:18:50;;;;;;;;;18.00;10.75;;;;;10.53;100.00;102612.22;5101720;27;51904;-74
2022/11/12 07:21:17;;;;;;;;;16.75;12.75;;;;;10.57;100.00;102627.34;5102790;27;54669;-75
2022/11/12 07:23:44;;;;;;;;;14.25;14.25;;;;;10.54;100.00;102621.94;5078278;27;45533;-76
2022/11/12 07:26:16;;;;;;;;;19.75;18.25;;;;;10.55;100.00;102617.59;5099821;27;45464;-75
2022/11/12 07:28:42;;;;;;;;;16.50;14.25;;;;;10.55;100.00;102630.78;5075921;27;46047;-76
2022/11/12 07:31:10;;;;;;;;;17.50;13.25;;;;;10.60;100.00;102637.13;5094179;27;45471;-74
2022/11/12 07:33:35;;;;;;;;;15.75;14.00;;;;;10.60;100.00;102639.78;5097748;27;45201;-73
2022/11/12 07:36:03;;;;;;;;;18.25;17.00;;;;;10.61;100.00;102646.88;5081858;27;48057;-75
2022/11/12 07:38:29;;;;;;;;;19.00;15.00;;;;;10.60;100.00;102642.41;5102595;27;47414;-76
2022/11/12 07:41:05;;;;;;;;;17.75;14.00;;;;;10.62;100.00;102648.69;5090911;27;45578;-76
2022/11/12 07:43:32;;;;;;;;;14.25;14.00;;;;;10.64;100.00;102650.53;5090805;27;45334;-74
2022/11/12 07:46:06;;;;;;;;;19.50;15.75;;;;;10.58;100.00;102644.09;5087847;27;45631;-74
2022/11/12 07:48:32;;;;;;;;;19.00;13.75;;;;;10.65;100.00;102652.34;5096857;27;45767;-74
2022/11/12 07:51:25;;;;;;;;;21.00;15.75;;;;;10.66;100.00;102651.50;5101499;27;51632;-74
2022/11/12 07:53:52;;;;;;;;;17.75;15.50;;;;;10.67;100.00;102650.66;5084964;27;45648;-74
2022/11/12 07:56:20;;;;;;;;;18.50;17.75;;;;;10.68;100.00;102654.19;5093669;27;45489;-74
2022/11/12 07:58:46;;;;;;;;;26.75;21.75;;;;;10.71;100.00;102651.69;5096403;27;45500;-73
2022/11/12 08:01:21;;;;;;;;;30.50;17.75;;;;;10.73;100.00;102657.94;5095599;27;45895;-76
2022/11/12 08:03:47;;;;;;;;;25.50;19.25;;;;;10.77;100.00;102664.25;5072707;27;45629;-73
2022/11/12 08:06:12;;;;;;;;;16.75;13.75;;;;;10.75;100.00;102654.50;5093982;27;60344;-74
2022/11/12 08:08:37;;;;;;;;;22.25;17.75;;;;;10.81;100.00;102659.13;5091311;27;53611;-75
2022/11/12 08:11:03;;;;;;;;;20.25;16.50;;;;;10.80;100.00;102661.69;5093282;27;51430;-75
2022/11/12 08:13:28;;;;;;;;;14.25;14.25;;;;;10.86;100.00;102673.41;5081987;27;45465;-74
2022/11/12 08:15:59;;;;;;;;;22.25;17.25;;;;;10.89;100.00;102667.34;5082633;27;45331;-74
2022/11/12 08:18:25;;;;;;;;;14.00;14.00;;;;;10.92;100.00;102668.38;5090012;27;45913;-75
2022/11/12 08:20:50;;;;;;;;;20.00;14.50;;;;;10.94;100.00;102673.72;5104169;27;45524;-76
2022/11/12 08:23:15;;;;;;;;;19.00;14.75;;;;;10.96;100.00;102672.03;5099553;27;55465;-76
2022/11/12 08:25:41;;;;;;;;;17.75;15.25;;;;;10.99;100.00;102675.69;5117790;27;45667;-74
2022/11/12 08:28:06;;;;;;;;;17.00;15.50;;;;;11.04;100.00;102673.25;5115685;27;46200;-73
2022/11/12 08:30:31;;;;;;;;;22.75;16.25;;;;;11.07;100.00;102680.38;5116121;27;45282;-75
2022/11/12 08:33:00;;;;;;;;;20.25;14.75;;;;;11.04;100.00;102675.88;5113284;27;63320;-75
2022/11/12 08:35:26;;;;;;;;;14.75;14.75;;;;;11.12;100.00;102684.09;5117967;27;45616;-75
2022/11/12 08:38:03;;;;;;;;;18.75;18.75;;;;;11.13;100.00;102684.19;5099640;27;45769;-73
2022/11/12 08:40:30;;;;;;;;;21.00;18.25;;;;;11.12;100.00;102681.47;5114477;27;45408;-74
2022/11/12 08:42:57;;;;;;;;;18.75;17.50;;;;;11.16;100.00;102681.63;5115284;27;46074;-74
2022/11/12 08:45:22;;;;;;;;;21.00;17.50;;;;;11.19;100.00;102675.59;5117166;27;45502;-74
2022/11/12 08:47:48;;;;;;;;;28.00;21.50;;;;;11.27;100.00;102682.03;5117881;27;51082;-74
2022/11/12 08:50:13;;;;;;;;;24.75;21.75;;;;;11.31;100.00;102685.72;5117424;27;50358;-74
2022/11/12 08:52:38;;;;;;;;;23.25;20.50;;;;;11.34;100.00;102686.72;5119502;27;45358;-74
2022/11/12 08:55:05;;;;;;;;;23.00;21.75;;;;;11.36;100.00;102690.34;5111869;27;45379;-74
2022/11/12 08:57:30;;;;;;;;;18.00;18.00;;;;;11.39;100.00;102684.25;5117895;27;45334;-73
2022/11/12 08:59:55;;;;;;;;;18.25;15.75;;;;;11.42;100.00;102681.72;5100690;27;46030;-74
2022/11/12 09:02:21;;;;;;;;;21.00;19.00;;;;;11.45;100.00;102673.88;5116708;27;45424;-75
2022/11/12 09:04:46;;;;;;;;;17.50;16.00;;;;;11.47;100.00;102673.13;5117599;27;45459;-75
2022/11/12 09:07:11;;;;;;;;;20.25;17.50;;;;;11.46;100.00;102666.03;5115095;27;68844;-74
2022/11/12 09:09:37;;;;;;;;;30.25;20.75;;;;;11.47;100.00;102662.53;5111809;27;51482;-73
2022/11/12 09:12:02;;;;;;;;;27.25;21.25;;;;;11.52;100.00;102668.88;5118363;27;46054;-74
2022/11/12 09:14:27;;;;;;;;;20.75;20.50;;;;;11.59;100.00;102680.59;5115961;27;45428;-75
2022/11/12 09:16:53;;;;;;;;;22.00;17.75;;;;;11.58;100.00;102664.66;5111467;27;45416;-73
2022/11/12 09:19:18;;;;;;;;;22.50;22.50;;;;;11.62;100.00;102667.50;5088962;27;46104;-74
2022/11/12 09:21:44;;;;;;;;;22.75;17.50;;;;;11.68;100.00;102665.06;5085288;27;55700;-74
2022/11/12 09:24:09;;;;;;;;;20.25;18.00;;;;;11.71;100.00;102665.16;5087152;27;45955;-72
2022/11/12 09:26:34;;;;;;;;;21.50;18.00;;;;;11.75;100.00;102674.09;5092351;27;55127;-74
2022/11/12 09:29:00;;;;;;;;;26.50;21.25;;;;;11.76;100.00;102671.50;5080092;27;61195;-75
2022/11/12 09:31:26;;;;;;;;;25.00;21.50;;;;;11.85;100.00;102670.09;5093225;27;54095;-74
2022/11/12 09:33:51;;;;;;;;;30.00;25.25;;;;;11.88;100.00;102672.81;5098072;27;45519;-74
2022/11/12 09:36:16;;;;;;;;;24.25;21.00;;;;;11.93;100.00;102677.47;5096381;27;52681;-74
2022/11/12 09:38:42;;;;;;;;;28.50;19.00;;;;;11.97;100.00;102668.75;5087606;27;45473;-75
2022/11/12 09:41:18;;;;;;;;;22.75;21.00;;;;;11.98;100.00;102656.41;5093322;27;45505;-75
2022/11/12 09:43:49;;;;;;;;;23.75;19.50;;;;;12.03;100.00;102657.47;5087188;27;45542;-74
2022/11/12 09:46:34;;;;;;;;;22.00;20.75;;;;;12.12;100.00;102668.38;5086869;27;45401;-76
2022/11/12 09:49:24;;;;;;;;;27.00;20.00;;;;;12.19;100.00;102669.47;5080243;27;45426;-76
2022/11/12 09:51:58;;;;;;;;;24.00;20.00;;;;;12.24;100.00;102662.59;5062081;27;45687;-76
2022/11/12 09:54:25;;;;;;;;;26.00;21.50;;;;;12.30;100.00;102679.63;5080095;27;45582;-75
2022/11/12 09:56:51;;;;;;;;;25.25;23.25;;;;;12.32;100.00;102669.06;5066185;27;46555;-75
2022/11/12 09:59:17;;;;;;;;;21.25;19.00;;;;;12.39;100.00;102673.69;5071449;27;45953;-76
2022/11/12 10:02:02;;;;;;;;;28.25;23.50;;;;;12.49;100.00;102689.06;5075142;27;46083;-75
2022/11/12 10:04:54;;;;;;;;;27.50;21.75;;;;;12.57;100.00;102682.28;5073496;27;45791;-76
2022/11/12 10:07:20;;;;;;;;;22.25;20.50;;;;;12.64;100.00;102678.06;5074857;27;46250;-76
2022/11/12 10:09:57;;;;;;;;;32.75;26.00;;;;;12.73;100.00;102693.34;5073186;27;46715;-75
2022/11/12 10:12:31;;;;;;;;;22.50;20.75;;;;;12.80;100.00;102692.69;5078067;27;45519;-75
2022/11/12 10:18:23;;;;;;;;;22.75;20.50;;;;;12.94;100.00;102682.50;5053732;27;45849;-79
2022/11/12 10:20:51;;;;;;;;;25.00;22.50;;;;;13.01;100.00;102676.56;5102209;27;45696;-79
2022/11/12 10:23:24;;;;;;;;;25.50;23.00;;;;;13.05;100.00;102684.66;5097313;27;46187;-75
2022/11/12 10:25:52;;;;;;;;;28.00;21.00;;;;;13.07;100.00;102674.09;5080537;27;47412;-76
2022/11/12 10:28:25;;;;;;;;;29.25;24.00;;;;;13.10;100.00;102661.84;5082071;27;46275;-74
2022/11/12 10:30:52;;;;;;;;;25.50;22.50;;;;;13.15;100.00;102663.69;5080002;27;45842;-75
2022/11/12 10:33:18;;;;;;;;;19.25;19.25;;;;;13.23;100.00;102667.53;5097168;27;45611;-75
2022/11/12 10:35:43;;;;;;;;;21.25;20.50;;;;;13.28;100.00;102665.91;5067491;27;45582;-76
2022/11/12 10:38:16;;;;;;;;;27.00;24.00;;;;;13.31;100.00;102656.25;5096491;27;46206;-77
2022/11/12 10:40:42;;;;;;;;;27.67;20.00;;;;;13.33;100.00;102659.00;5096216;27;45812;-76
2022/11/12 10:43:16;;;;;;;;;20.00;20.00;;;;;13.44;100.00;102664.59;5093721;27;45566;-73
2022/11/12 10:45:43;;;;;;;;;23.75;20.25;;;;;13.49;100.00;102655.91;5098056;27;45544;-75
2022/11/12 10:48:27;;;;;;;;;22.33;21.33;;;;;13.54;100.00;102664.00;5099951;27;45669;-75
2022/11/12 10:50:53;;;;;;;;;22.75;18.25;;;;;13.59;100.00;102652.66;5096351;27;45905;-77
2022/11/12 10:53:37;;;;;;;;;23.50;22.00;;;;;13.59;100.00;102655.31;5095669;27;45527;-73
2022/11/12 10:56:05;;;;;;;;;27.25;23.50;;;;;13.65;100.00;102651.94;5097940;27;45903;-74
2022/11/12 10:58:30;;;;;;;;;24.33;21.33;;;;;13.74;100.00;102654.84;5074887;27;46034;-73
2022/11/12 11:01:04;;;;;;;;;24.25;20.75;;;;;13.80;100.00;102644.38;5091113;27;45499;-74
2022/11/12 11:03:35;;;;;;;;;25.00;23.25;;;;;13.84;100.00;102635.63;5095690;27;45551;-74
2022/11/12 11:06:06;;;;;;;;;29.50;25.50;;;;;13.89;100.00;102633.09;5097707;27;45453;-75
2022/11/12 11:08:38;;;;;;;;;24.00;21.50;;;;;13.93;100.00;102629.66;5078646;27;46409;-73
2022/11/12 11:11:09;;;;;;;;;26.50;23.50;;;;;13.98;100.00;102629.78;5092966;27;45486;-75
2022/11/12 11:13:35;;;;;;;;;24.67;22.00;;;;;14.02;100.00;102610.41;5094973;27;45881;-75
2022/11/12 11:16:05;;;;;;;;;23.25;23.00;;;;;14.04;100.00;102614.91;5079573;27;45723;-74
2022/11/12 11:18:36;;;;;;;;;22.00;18.75;;;;;14.06;100.00;102607.88;5089576;27;45844;-76
2022/11/12 11:21:19;;;;;;;;;25.75;24.75;;;;;14.14;100.00;102605.41;5096702;27;45526;-75
2022/11/12 11:24:02;;;;;;;;;19.50;19.50;;;;;14.17;100.00;102605.50;5101174;27;45394;-73